sensor_id;sensor_type;location;lat;lon;timestamp;pressure;altitude;pressure_sealevel;temperature;humidity
60871;BME280;46714;50.118;14.462;2023-11-21T00:02:24;98260.41;;;8.17;100.00
60871;BME280;46714;50.118;14.462;2023-11-21T00:04:50;98262.31;;;8.17;100.00
60871;BME280;46714;50.118;14.462;2023-11-21T00:07:16;98260.66;;;8.16;100.00
60871;BME280;46714;50.118;14.462;2023-11-21T00:09:42;98261.69;;;8.15;100.00
60871;BME280;46714;50.118;14.462;2023-11-21T00:12:07;98252.53;;;8.16;100.00
60871;BME280;46714;50.118;14.462;2023-11-21T00:14:39;98260.06;;;8.14;100.00
60871;BME280;46714;50.118;14.462;2023-11-21T00:17:05;98258.38;;;8.13;100.00
60871;BME280;46714;50.118;14.462;2023-11-21T00:19:31;98252.94;;;8.13;100.00
60871;BME280;46714;50.118;14.462;2023-11-21T00:21:57;98257.56;;;8.12;100.00
60871;BME280;46714;50.118;14.462;2023-11-21T00:24:23;98252.38;;;8.11;100.00
60871;BME280;46714;50.118;14.462;2023-11-21T00:26:49;98257.78;;;8.11;100.00
60871;BME280;46714;50.118;14.462;2023-11-21T00:29:15;98263.44;;;8.09;100.00
60871;BME280;46714;50.118;14.462;2023-11-21T00:31:42;98256.94;;;8.10;100.00
60871;BME280;46714;50.118;14.462;2023-11-21T00:34:08;98259.91;;;8.09;100.00
60871;BME280;46714;50.118;14.462;2023-11-21T00:36:34;98255.50;;;8.08;100.00
60871;BME280;46714;50.118;14.462;2023-11-21T00:38:59;98259.28;;;8.07;100.00
60871;BME280;46714;50.118;14.462;2023-11-21T00:41:25;98259.28;;;8.07;100.00
60871;BME280;46714;50.118;14.462;2023-11-21T00:43:53;98259.28;;;8.07;100.00
60871;BME280;46714;50.118;14.462;2023-11-21T00:46:20;98257.59;;;8.06;100.00
60871;BME280;46714;50.118;14.462;2023-11-21T00:48:45;98258.44;;;8.06;100.00
60871;BME280;46714;50.118;14.462;2023-11-21T00:51:12;98262.19;;;8.05;100.00
60871;BME280;46714;50.118;14.462;2023-11-21T00:53:37;98263.25;;;8.04;100.00
60871;BME280;46714;50.118;14.462;2023-11-21T00:56:02;98261.38;;;8.05;100.00
60871;BME280;46714;50.118;14.462;2023-11-21T00:58:28;98257.44;;;8.01;100.00
60871;BME280;46714;50.118;14.462;2023-11-21T01:00:54;98262.88;;;8.01;100.00
60871;BME280;46714;50.118;14.462;2023-11-21T01:03:19;98261.81;;;8.02;100.00
60871;BME280;46714;50.118;14.462;2023-11-21T01:05:45;98259.34;;;8.00;100.00
60871;BME280;46714;50.118;14.462;2023-11-21T01:08:11;98263.06;;;7.99;100.00
60871;BME280;46714;50.118;14.462;2023-11-21T01:10:36;98274.78;;;8.00;100.00
60871;BME280;46714;50.118;14.462;2023-11-21T01:13:02;98270.38;;;7.98;100.00
60871;BME280;46714;50.118;14.462;2023-11-21T01:15:30;98271.44;;;7.97;100.00
60871;BME280;46714;50.118;14.462;2023-11-21T01:17:56;98277.91;;;7.96;100.00
60871;BME280;46714;50.118;14.462;2023-11-21T01:20:21;98274.38;;;7.96;100.00
60871;BME280;46714;50.118;14.462;2023-11-21T01:22:46;98271.88;;;7.94;100.00
60871;BME280;46714;50.118;14.462;2023-11-21T01:25:14;98268.53;;;7.92;100.00
60871;BME280;46714;50.118;14.462;2023-11-21T01:27:41;98270.22;;;7.93;100.00
60871;BME280;46714;50.118;14.462;2023-11-21T01:30:07;98265.25;;;7.90;100.00
60871;BME280;46714;50.118;14.462;2023-11-21T01:32:34;98270.06;;;7.88;100.00
60871;BME280;46714;50.118;14.462;2023-11-21T01:34:59;98268.38;;;7.87;100.00
60871;BME280;46714;50.118;14.462;2023-11-21T01:37:25;98267.75;;;7.85;100.00
60871;BME280;46714;50.118;14.462;2023-11-21T01:39:52;98268.00;;;7.84;100.00
60871;BME280;46714;50.118;14.462;2023-11-21T01:42:21;98276.94;;;7.84;100.00
60871;BME280;46714;50.118;14.462;2023-11-21T01:44:46;98275.28;;;7.83;100.00
60871;BME280;46714;50.118;14.462;2023-11-21T01:47:11;98274.44;;;7.83;100.00
60871;BME280;46714;50.118;14.462;2023-11-21T01:49:39;98275.53;;;7.82;100.00
60871;BME280;46714;50.118;14.462;2023-11-21T01:52:04;98280.13;;;7.81;100.00
60871;BME280;46714;50.118;14.462;2023-11-21T01:54:31;98278.22;;;7.82;100.00
60871;BME280;46714;50.118;14.462;2023-11-21T01:56:58;98290.94;;;7.81;100.00
60871;BME280;46714;50.118;14.462;2023-11-21T01:59:29;98281.97;;;7.81;100.00
60871;BME280;46714;50.118;14.462;2023-11-21T02:02:00;98278.44;;;7.80;100.00
60871;BME280;46714;50.118;14.462;2023-11-21T02:04:25;98283.84;;;7.80;100.00
60871;BME280;46714;50.118;14.462;2023-11-21T02:06:50;98275.94;;;7.79;100.00
60871;BME280;46714;50.118;14.462;2023-11-21T02:09:16;98283.25;;;7.78;100.00
60871;BME280;46714;50.118;14.462;2023-11-21T02:11:42;98280.97;;;7.75;100.00
60871;BME280;46714;50.118;14.462;2023-11-21T02:14:09;98280.97;;;7.75;100.00
60871;BME280;46714;50.118;14.462;2023-11-21T02:16:35;98283.06;;;7.73;100.00
60871;BME280;46714;50.118;14.462;2023-11-21T02:19:01;98273.28;;;7.72;100.00
60871;BME280;46714;50.118;14.462;2023-11-21T02:21:28;98269.97;;;7.70;100.00
60871;BME280;46714;50.118;14.462;2023-11-21T02:23:55;98271.81;;;7.69;100.00
60871;BME280;46714;50.118;14.462;2023-11-21T02:26:20;98271.25;;;7.67;100.00
60871;BME280;46714;50.118;14.462;2023-11-21T02:28:46;98273.09;;;7.67;100.00
60871;BME280;46714;50.118;14.462;2023-11-21T02:31:11;98276.03;;;7.65;100.00
60871;BME280;46714;50.118;14.462;2023-11-21T02:33:37;98276.88;;;7.66;100.00
60871;BME280;46714;50.118;14.462;2023-11-21T02:36:03;98276.88;;;7.66;100.00
60871;BME280;46714;50.118;14.462;2023-11-21T02:38:28;98277.06;;;7.64;100.00
60871;BME280;46714;50.118;14.462;2023-11-21T02:40:54;98265.41;;;7.64;100.00
60871;BME280;46714;50.118;14.462;2023-11-21T02:43:20;98272.47;;;7.65;100.00
60871;BME280;46714;50.118;14.462;2023-11-21T02:45:46;98270.84;;;7.64;100.00
60871;BME280;46714;50.118;14.462;2023-11-21T02:48:11;98274.38;;;7.64;100.00
60871;BME280;46714;50.118;14.462;2023-11-21T02:50:36;98279.56;;;7.66;100.00
60871;BME280;46714;50.118;14.462;2023-11-21T02:53:02;98272.47;;;7.65;100.00
60871;BME280;46714;50.118;14.462;2023-11-21T02:55:29;98270.84;;;7.64;100.00
60871;BME280;46714;50.118;14.462;2023-11-21T02:57:55;98260.81;;;7.64;100.00
60871;BME280;46714;50.118;14.462;2023-11-21T03:00:23;98270.00;;;7.63;100.00
60871;BME280;46714;50.118;14.462;2023-11-21T03:02:51;98263.75;;;7.63;100.00
60871;BME280;46714;50.118;14.462;2023-11-21T03:05:16;98266.44;;;7.63;100.00
60871;BME280;46714;50.118;14.462;2023-11-21T03:07:41;98266.69;;;7.61;100.00
60871;BME280;46714;50.118;14.462;2023-11-21T03:10:07;98265.88;;;7.61;100.00
60871;BME280;46714;50.118;14.462;2023-11-21T03:12:37;98279.16;;;7.62;100.00
60871;BME280;46714;50.118;14.462;2023-11-21T03:15:03;98267.50;;;7.62;100.00
60871;BME280;46714;50.118;14.462;2023-11-21T03:17:32;98271.28;;;7.61;100.00
60871;BME280;46714;50.118;14.462;2023-11-21T03:20:01;98271.28;;;7.61;100.00
60871;BME280;46714;50.118;14.462;2023-11-21T03:22:28;98270.44;;;7.60;100.00
60871;BME280;46714;50.118;14.462;2023-11-21T03:24:53;98272.31;;;7.60;100.00
60871;BME280;46714;50.118;14.462;2023-11-21T03:27:18;98272.31;;;7.60;100.00
60871;BME280;46714;50.118;14.462;2023-11-21T03:29:44;98271.28;;;7.61;100.00
60871;BME280;46714;50.118;14.462;2023-11-21T03:32:11;98277.72;;;7.60;100.00
60871;BME280;46714;50.118;14.462;2023-11-21T03:34:48;98275.03;;;7.60;100.00
60871;BME280;46714;50.118;14.462;2023-11-21T03:37:22;98277.72;;;7.60;100.00
60871;BME280;46714;50.118;14.462;2023-11-21T03:39:47;98287.75;;;7.59;100.00
60871;BME280;46714;50.118;14.462;2023-11-21T03:42:12;98283.34;;;7.58;100.00
60871;BME280;46714;50.118;14.462;2023-11-21T03:44:38;98277.34;;;7.56;100.00
60871;BME280;46714;50.118;14.462;2023-11-21T03:47:03;98281.28;;;7.53;100.00
60871;BME280;46714;50.118;14.462;2023-11-21T03:49:29;98283.19;;;7.53;100.00
60871;BME280;46714;50.118;14.462;2023-11-21T03:51:54;98277.75;;;7.53;100.00
60871;BME280;46714;50.118;14.462;2023-11-21T03:54:21;98284.25;;;7.52;100.00
60871;BME280;46714;50.118;14.462;2023-11-21T03:56:46;98279.84;;;7.51;100.00
60871;BME280;46714;50.118;14.462;2023-11-21T03:59:11;98281.75;;;7.50;100.00
60871;BME280;46714;50.118;14.462;2023-11-21T04:01:37;98290.94;;;7.49;100.00
60871;BME280;46714;50.118;14.462;2023-11-21T04:04:02;98295.50;;;7.49;100.00
60871;BME280;46714;50.118;14.462;2023-11-21T04:06:29;98292.19;;;7.47;100.00
60871;BME280;46714;50.118;14.462;2023-11-21T04:08:54;98293.22;;;7.46;100.00
60871;BME280;46714;50.118;14.462;2023-11-21T04:11:20;98294.91;;;7.47;100.00
60871;BME280;46714;50.118;14.462;2023-11-21T04:13:45;98295.09;;;7.45;100.00
60871;BME280;46714;50.118;14.462;2023-11-21T04:16:12;98289.06;;;7.43;100.00
60871;BME280;46714;50.118;14.462;2023-11-21T04:18:38;98298.84;;;7.44;100.00
60871;BME280;46714;50.118;14.462;2023-11-21T04:21:07;98297.81;;;7.45;100.00
60871;BME280;46714;50.118;14.462;2023-11-21T04:23:33;98295.09;;;7.45;100.00
60871;BME280;46714;50.118;14.462;2023-11-21T04:25:59;98298.84;;;7.44;100.00
60871;BME280;46714;50.118;14.462;2023-11-21T04:28:25;98305.13;;;7.45;100.00
60871;BME280;46714;50.118;14.462;2023-11-21T04:30:50;98301.34;;;7.46;100.00
60871;BME280;46714;50.118;14.462;2023-11-21T04:33:16;98301.34;;;7.46;100.00
60871;BME280;46714;50.118;14.462;2023-11-21T04:35:41;98301.34;;;7.46;100.00
60871;BME280;46714;50.118;14.462;2023-11-21T04:38:07;98298.63;;;7.46;100.00
60871;BME280;46714;50.118;14.462;2023-11-21T04:40:32;98309.69;;;7.44;100.00
60871;BME280;46714;50.118;14.462;2023-11-21T04:42:57;98304.25;;;7.44;100.00
60871;BME280;46714;50.118;14.462;2023-11-21T04:45:23;98311.56;;;7.44;100.00
60871;BME280;46714;50.118;14.462;2023-11-21T04:47:48;98309.09;;;7.42;100.00
60871;BME280;46714;50.118;14.462;2023-11-21T04:50:14;98305.31;;;7.43;100.00
60871;BME280;46714;50.118;14.462;2023-11-21T04:52:39;98305.31;;;7.43;100.00
60871;BME280;46714;50.118;14.462;2023-11-21T04:55:05;98309.69;;;7.44;100.00
60871;BME280;46714;50.118;14.462;2023-11-21T04:57:32;98306.38;;;7.42;100.00
60871;BME280;46714;50.118;14.462;2023-11-21T04:59:57;98307.63;;;7.40;100.00
60871;BME280;46714;50.118;14.462;2023-11-21T05:02:23;98313.88;;;7.40;100.00
60871;BME280;46714;50.118;14.462;2023-11-21T05:04:48;98304.09;;;7.39;100.00
60871;BME280;46714;50.118;14.462;2023-11-21T05:07:14;98309.50;;;7.39;100.00
60871;BME280;46714;50.118;14.462;2023-11-21T05:09:42;98313.25;;;7.38;100.00
60871;BME280;46714;50.118;14.462;2023-11-21T05:12:11;98304.31;;;7.38;100.00
60871;BME280;46714;50.118;14.462;2023-11-21T05:14:37;98314.91;;;7.39;100.00
60871;BME280;46714;50.118;14.462;2023-11-21T05:17:03;98312.22;;;7.39;100.00
60871;BME280;46714;50.118;14.462;2023-11-21T05:19:29;98306.16;;;7.37;100.00
60871;BME280;46714;50.118;14.462;2023-11-21T05:21:55;98326.81;;;7.38;100.00
60871;BME280;46714;50.118;14.462;2023-11-21T05:24:20;98312.84;;;7.34;100.00
60871;BME280;46714;50.118;14.462;2023-11-21T05:26:45;98321.22;;;7.33;100.00
60871;BME280;46714;50.118;14.462;2023-11-21T05:29:11;98326.63;;;7.33;100.00
60871;BME280;46714;50.118;14.462;2023-11-21T05:31:36;98324.75;;;7.33;100.00
60871;BME280;46714;50.118;14.462;2023-11-21T05:34:02;98332.03;;;7.33;100.00
60871;BME280;46714;50.118;14.462;2023-11-21T05:36:28;98329.31;;;7.33;100.00
60871;BME280;46714;50.118;14.462;2023-11-21T05:38:53;98333.06;;;7.32;100.00
60871;BME280;46714;50.118;14.462;2023-11-21T05:41:19;98338.47;;;7.32;100.00
60871;BME280;46714;50.118;14.462;2023-11-21T05:43:45;98340.38;;;7.31;100.00
60871;BME280;46714;50.118;14.462;2023-11-21T05:46:10;98335.16;;;7.30;100.00
60871;BME280;46714;50.118;14.462;2023-11-21T05:48:36;98335.97;;;7.30;100.00
60871;BME280;46714;50.118;14.462;2023-11-21T05:51:04;98336.22;;;7.29;100.00
60871;BME280;46714;50.118;14.462;2023-11-21T05:53:31;98337.03;;;7.29;100.00
60871;BME280;46714;50.118;14.462;2023-11-21T05:55:57;98337.84;;;7.30;100.00
60871;BME280;46714;50.118;14.462;2023-11-21T05:58:22;98339.75;;;7.29;100.00
60871;BME280;46714;50.118;14.462;2023-11-21T06:00:48;98337.25;;;7.28;100.00
60871;BME280;46714;50.118;14.462;2023-11-21T06:03:13;98342.66;;;7.28;100.00
60871;BME280;46714;50.118;14.462;2023-11-21T06:05:38;98341.00;;;7.27;100.00
60871;BME280;46714;50.118;14.462;2023-11-21T06:08:04;98340.19;;;7.26;100.00
60871;BME280;46714;50.118;14.462;2023-11-21T06:10:29;98335.78;;;7.25;100.00
60871;BME280;46714;50.118;14.462;2023-11-21T06:12:55;98350.16;;;7.26;100.00
60871;BME280;46714;50.118;14.462;2023-11-21T06:15:20;98348.50;;;7.25;100.00
60871;BME280;46714;50.118;14.462;2023-11-21T06:17:48;98354.75;;;7.25;100.00
60871;BME280;46714;50.118;14.462;2023-11-21T06:20:17;98352.25;;;7.24;100.00
60871;BME280;46714;50.118;14.462;2023-11-21T06:22:43;98354.13;;;7.23;100.00
60871;BME280;46714;50.118;14.462;2023-11-21T06:25:13;98356.81;;;7.23;100.00
60871;BME280;46714;50.118;14.462;2023-11-21T06:27:43;98370.38;;;7.23;100.00
60871;BME280;46714;50.118;14.462;2023-11-21T06:30:10;98366.84;;;7.23;100.00
60871;BME280;46714;50.118;14.462;2023-11-21T06:32:36;98370.59;;;7.22;100.00
60871;BME280;46714;50.118;14.462;2023-11-21T06:35:03;98369.97;;;7.20;100.00
60871;BME280;46714;50.118;14.462;2023-11-21T06:37:29;98369.13;;;7.19;100.00
60871;BME280;46714;50.118;14.462;2023-11-21T06:39:55;98378.09;;;7.20;100.00
60871;BME280;46714;50.118;14.462;2023-11-21T06:42:21;98378.09;;;7.20;100.00
60871;BME280;46714;50.118;14.462;2023-11-21T06:44:47;98382.66;;;7.19;100.00
60871;BME280;46714;50.118;14.462;2023-11-21T06:47:13;98395.97;;;7.21;100.00
60871;BME280;46714;50.118;14.462;2023-11-21T06:49:39;98398.69;;;7.21;100.00
60871;BME280;46714;50.118;14.462;2023-11-21T06:52:06;98393.47;;;7.19;100.00
60871;BME280;46714;50.118;14.462;2023-11-21T06:54:31;98392.25;;;7.22;100.00
60871;BME280;46714;50.118;14.462;2023-11-21T06:56:57;98392.00;;;7.23;100.00
60871;BME280;46714;50.118;14.462;2023-11-21T06:59:23;98386.59;;;7.23;100.00
60871;BME280;46714;50.118;14.462;2023-11-21T07:01:49;98390.13;;;7.24;100.00
60871;BME280;46714;50.118;14.462;2023-11-21T07:04:14;98399.94;;;7.25;100.00
60871;BME280;46714;50.118;14.462;2023-11-21T07:06:40;98394.53;;;7.25;100.00
60871;BME280;46714;50.118;14.462;2023-11-21T07:09:05;98396.41;;;7.24;100.00
60871;BME280;46714;50.118;14.462;2023-11-21T07:11:33;98396.41;;;7.24;100.00
60871;BME280;46714;50.118;14.462;2023-11-21T07:13:59;98396.41;;;7.24;100.00
60871;BME280;46714;50.118;14.462;2023-11-21T07:16:24;98398.06;;;7.25;100.00
60871;BME280;46714;50.118;14.462;2023-11-21T07:18:50;98399.09;;;7.24;100.00
60871;BME280;46714;50.118;14.462;2023-11-21T07:21:15;98396.41;;;7.24;100.00
60871;BME280;46714;50.118;14.462;2023-11-21T07:23:41;98397.03;;;7.26;100.00
60871;BME280;46714;50.118;14.462;2023-11-21T07:26:07;98393.69;;;7.31;100.00
60871;BME280;46714;50.118;14.462;2023-11-21T07:28:34;98399.72;;;7.33;100.00
60871;BME280;46714;50.118;14.462;2023-11-21T07:31:00;98403.00;;;7.35;100.00
60871;BME280;46714;50.118;14.462;2023-11-21T07:33:26;98402.81;;;7.37;100.00
60871;BME280;46714;50.118;14.462;2023-11-21T07:35:52;98410.94;;;7.37;100.00
60871;BME280;46714;50.118;14.462;2023-11-21T07:38:17;98414.69;;;7.36;100.00
60871;BME280;46714;50.118;14.462;2023-11-21T07:40:43;98417.41;;;7.36;100.00
60871;BME280;46714;50.118;14.462;2023-11-21T07:43:08;98411.56;;;7.39;100.00
60871;BME280;46714;50.118;14.462;2023-11-21T07:45:35;98408.66;;;7.40;100.00
60871;BME280;46714;50.118;14.462;2023-11-21T07:48:01;98404.69;;;7.43;100.00
60871;BME280;46714;50.118;14.462;2023-11-21T07:50:28;98412.38;;;7.46;100.00
60871;BME280;46714;50.118;14.462;2023-11-21T07:52:54;98413.19;;;7.46;100.00
60871;BME280;46714;50.118;14.462;2023-11-21T07:55:19;98411.94;;;7.49;100.00
60871;BME280;46714;50.118;14.462;2023-11-21T07:57:45;98426.72;;;7.53;100.00
60871;BME280;46714;50.118;14.462;2023-11-21T08:00:11;98418.38;;;7.54;100.00
60871;BME280;46714;50.118;14.462;2023-11-21T08:02:37;98417.13;;;7.57;100.00
60871;BME280;46714;50.118;14.462;2023-11-21T08:05:10;98416.69;;;7.60;100.00
60871;BME280;46714;50.118;14.462;2023-11-21T08:07:36;98418.75;;;7.65;100.00
60871;BME280;46714;50.118;14.462;2023-11-21T08:10:02;98410.41;;;7.66;100.00
60871;BME280;46714;50.118;14.462;2023-11-21T08:12:29;98423.75;;;7.68;100.00
60871;BME280;46714;50.118;14.462;2023-11-21T08:14:55;98419.56;;;7.72;100.00
60871;BME280;46714;50.118;14.462;2023-11-21T08:17:20;98422.06;;;7.73;100.00
60871;BME280;46714;50.118;14.462;2023-11-21T08:19:46;98421.63;;;7.76;100.00
60871;BME280;46714;50.118;14.462;2023-11-21T08:22:14;98428.50;;;7.79;100.00
60871;BME280;46714;50.118;14.462;2023-11-21T08:24:42;98429.72;;;7.83;100.00
60871;BME280;46714;50.118;14.462;2023-11-21T08:27:07;98433.66;;;7.87;100.00
60871;BME280;46714;50.118;14.462;2023-11-21T08:29:33;98435.97;;;7.90;100.00
60871;BME280;46714;50.118;14.462;2023-11-21T08:31:59;98427.59;;;7.92;100.00
60871;BME280;46714;50.118;14.462;2023-11-21T08:34:25;98435.06;;;7.96;100.00
60871;BME280;46714;50.118;14.462;2023-11-21T08:36:50;98431.34;;;7.97;100.00
60871;BME280;46714;50.118;14.462;2023-11-21T08:39:16;98435.25;;;8.02;100.00
60871;BME280;46714;50.118;14.462;2023-11-21T08:41:44;98429.41;;;8.05;100.00
60871;BME280;46714;50.118;14.462;2023-11-21T08:44:09;98430.66;;;8.09;100.00
60871;BME280;46714;50.118;14.462;2023-11-21T08:46:35;98433.97;;;8.11;100.00
60871;BME280;46714;50.118;14.462;2023-11-21T08:49:03;98436.25;;;8.14;100.00
60871;BME280;46714;50.118;14.462;2023-11-21T08:51:28;98433.53;;;8.14;100.00
60871;BME280;46714;50.118;14.462;2023-11-21T08:53:53;98451.03;;;8.18;100.00
60871;BME280;46714;50.118;14.462;2023-11-21T08:56:19;98451.88;;;8.18;100.00
60871;BME280;46714;50.118;14.462;2023-11-21T08:58:45;98451.66;;;8.20;100.00
60871;BME280;46714;50.118;14.462;2023-11-21T09:01:12;98455.19;;;8.21;100.00
60871;BME280;46714;50.118;14.462;2023-11-21T09:03:38;98449.13;;;8.25;100.00
60871;BME280;46714;50.118;14.462;2023-11-21T09:06:03;98458.91;;;8.26;99.19
60871;BME280;46714;50.118;14.462;2023-11-21T09:08:29;98464.31;;;8.26;98.91
60871;BME280;46714;50.118;14.462;2023-11-21T09:10:55;98466.00;;;8.27;99.62
60871;BME280;46714;50.118;14.462;2023-11-21T09:13:20;98460.97;;;8.31;99.87
60871;BME280;46714;50.118;14.462;2023-11-21T09:15:46;98471.81;;;8.31;98.94
60871;BME280;46714;50.118;14.462;2023-11-21T09:18:14;98468.47;;;8.29;98.44
60871;BME280;46714;50.118;14.462;2023-11-21T09:20:40;98466.38;;;8.31;98.96
60871;BME280;46714;50.118;14.462;2023-11-21T09:23:06;98470.16;;;8.30;97.89
60871;BME280;46714;50.118;14.462;2023-11-21T09:25:32;98478.28;;;8.30;98.46
60871;BME280;46714;50.118;14.462;2023-11-21T09:27:57;98477.47;;;8.29;97.79
60871;BME280;46714;50.118;14.462;2023-11-21T09:30:23;98474.31;;;8.32;97.42
60871;BME280;46714;50.118;14.462;2023-11-21T09:32:50;98479.28;;;8.35;98.39
60871;BME280;46714;50.118;14.462;2023-11-21T09:35:18;98486.38;;;8.36;97.19
60871;BME280;46714;50.118;14.462;2023-11-21T09:37:46;98475.31;;;8.38;97.23
60871;BME280;46714;50.118;14.462;2023-11-21T09:40:12;98484.72;;;8.42;98.04
60871;BME280;46714;50.118;14.462;2023-11-21T09:42:39;98483.44;;;8.45;96.35
60871;BME280;46714;50.118;14.462;2023-11-21T09:47:43;98490.72;;;8.51;96.12
60871;BME280;46714;50.118;14.462;2023-11-21T09:50:09;98492.97;;;8.54;94.27
60871;BME280;46714;50.118;14.462;2023-11-21T09:52:38;98494.03;;;8.53;94.92
60871;BME280;46714;50.118;14.462;2023-11-21T09:55:18;98497.97;;;8.57;95.28
60871;BME280;46714;50.118;14.462;2023-11-21T09:57:46;98503.41;;;8.57;93.74
60871;BME280;46714;50.118;14.462;2023-11-21T10:00:13;98494.81;;;8.60;93.09
60871;BME280;46714;50.118;14.462;2023-11-21T10:02:42;98490.63;;;8.64;94.09
60871;BME280;46714;50.118;14.462;2023-11-21T10:05:08;98495.59;;;8.67;92.62
60871;BME280;46714;50.118;14.462;2023-11-21T10:07:34;98493.31;;;8.71;92.59
60871;BME280;46714;50.118;14.462;2023-11-21T10:10:00;98494.56;;;8.68;91.01
60871;BME280;46714;50.118;14.462;2023-11-21T10:12:27;98496.66;;;8.66;90.71
60871;BME280;46714;50.118;14.462;2023-11-21T10:14:54;98493.50;;;8.69;91.22
60871;BME280;46714;50.118;14.462;2023-11-21T10:17:23;98490.75;;;8.76;90.91
60871;BME280;46714;50.118;14.462;2023-11-21T10:19:51;98504.69;;;8.79;89.67
60871;BME280;46714;50.118;14.462;2023-11-21T10:22:18;98493.25;;;8.77;89.40
60871;BME280;46714;50.118;14.462;2023-11-21T10:24:45;98489.31;;;8.73;88.59
60871;BME280;46714;50.118;14.462;2023-11-21T10:27:11;98494.13;;;8.71;89.88
60871;BME280;46714;50.118;14.462;2023-11-21T10:29:38;98490.59;;;8.71;89.34
60871;BME280;46714;50.118;14.462;2023-11-21T10:32:04;98488.69;;;8.71;89.48
60871;BME280;46714;50.118;14.462;2023-11-21T10:34:30;98492.84;;;8.74;89.23
60871;BME280;46714;50.118;14.462;2023-11-21T10:36:56;98493.69;;;8.74;87.75
60871;BME280;46714;50.118;14.462;2023-11-21T10:39:23;98494.13;;;8.71;87.54
60871;BME280;46714;50.118;14.462;2023-11-21T10:41:52;98496.22;;;8.69;87.85
60871;BME280;46714;50.118;14.462;2023-11-21T10:44:19;98491.41;;;8.71;88.20
60871;BME280;46714;50.118;14.462;2023-11-21T10:46:49;98496.63;;;8.73;89.37
60871;BME280;46714;50.118;14.462;2023-11-21T10:49:25;98492.66;;;8.75;89.26
60871;BME280;46714;50.118;14.462;2023-11-21T10:51:55;98495.34;;;8.75;87.84
60871;BME280;46714;50.118;14.462;2023-11-21T10:54:21;98504.31;;;8.76;88.56
60871;BME280;46714;50.118;14.462;2023-11-21T10:56:53;98500.78;;;8.75;87.46
60871;BME280;46714;50.118;14.462;2023-11-21T10:59:22;98493.84;;;8.79;89.02
60871;BME280;46714;50.118;14.462;2023-11-21T11:01:50;98489.88;;;8.82;89.59
60871;BME280;46714;50.118;14.462;2023-11-21T11:04:18;98495.31;;;8.82;88.24
60871;BME280;46714;50.118;14.462;2023-11-21T11:06:44;98488.59;;;8.85;87.75
60871;BME280;46714;50.118;14.462;2023-11-21T11:09:16;98490.66;;;8.89;87.56
60871;BME280;46714;50.118;14.462;2023-11-21T11:11:42;98492.31;;;8.90;86.78
60871;BME280;46714;50.118;14.462;2023-11-21T11:14:11;98485.19;;;8.96;86.26
60871;BME280;46714;50.118;14.462;2023-11-21T11:16:38;98483.25;;;9.03;86.80
60871;BME280;46714;50.118;14.462;2023-11-21T11:19:10;98479.81;;;9.14;85.62
60871;BME280;46714;50.118;14.462;2023-11-21T11:36:02;98479.44;;;9.29;81.84
60871;BME280;46714;50.118;14.462;2023-11-21T11:38:32;98474.47;;;9.26;82.36
60871;BME280;46714;50.118;14.462;2023-11-21T11:41:01;98471.50;;;9.28;82.12
60871;BME280;46714;50.118;14.462;2023-11-21T11:43:29;98480.72;;;9.27;82.10
60871;BME280;46714;50.118;14.462;2023-11-21T11:45:58;98472.78;;;9.25;83.66
60871;BME280;46714;50.118;14.462;2023-11-21T11:48:24;98488.66;;;9.28;83.55
60871;BME280;46714;50.118;14.462;2023-11-21T11:51:32;98485.94;;;9.28;81.74
60871;BME280;46714;50.118;14.462;2023-11-21T11:53:42;98485.34;;;9.26;79.76
60871;BME280;46714;50.118;14.462;2023-11-21T11:56:30;98486.00;;;9.21;81.02
60871;BME280;46714;50.118;14.462;2023-11-21T11:58:59;98497.91;;;9.20;81.68
60871;BME280;46714;50.118;14.462;2023-11-21T12:01:28;98494.97;;;9.22;81.41
60871;BME280;46714;50.118;14.462;2023-11-21T12:06:59;98496.72;;;9.16;80.14
60871;BME280;46714;50.118;14.462;2023-11-21T12:09:27;98494.25;;;9.08;81.43
60871;BME280;46714;50.118;14.462;2023-11-21T12:11:54;98493.69;;;8.99;82.89
60871;BME280;46714;50.118;14.462;2023-11-21T12:14:23;98494.00;;;8.91;83.27
60871;BME280;46714;50.118;14.462;2023-11-21T12:16:48;98499.84;;;8.88;83.67
60871;BME280;46714;50.118;14.462;2023-11-21T12:19:14;98498.59;;;8.84;84.34
60871;BME280;46714;50.118;14.462;2023-11-21T12:21:40;98495.06;;;8.84;84.74
60871;BME280;46714;50.118;14.462;2023-11-21T12:24:13;98500.28;;;8.85;85.36
60871;BME280;46714;50.118;14.462;2023-11-21T12:26:42;98498.22;;;8.80;86.05
60871;BME280;46714;50.118;14.462;2023-11-21T12:29:08;98496.56;;;8.79;87.28
60871;BME280;46714;50.118;14.462;2023-11-21T12:31:35;98498.69;;;8.77;86.63
60871;BME280;46714;50.118;14.462;2023-11-21T12:34:01;98504.94;;;8.78;87.88
60871;BME280;46714;50.118;14.462;2023-11-21T12:36:26;98499.28;;;8.79;89.39
60871;BME280;46714;50.118;14.462;2023-11-21T12:38:54;98489.03;;;8.81;89.79
60871;BME280;46714;50.118;14.462;2023-11-21T12:41:19;98501.97;;;8.79;89.61
60871;BME280;46714;50.118;14.462;2023-11-21T12:43:46;98504.53;;;8.74;88.46
60871;BME280;46714;50.118;14.462;2023-11-21T12:46:12;98499.75;;;8.70;88.74
60871;BME280;46714;50.118;14.462;2023-11-21T12:48:42;98499.16;;;8.68;90.14
60871;BME280;46714;50.118;14.462;2023-11-21T12:51:09;98495.59;;;8.67;89.59
60871;BME280;46714;50.118;14.462;2023-11-21T12:53:44;98497.88;;;8.70;89.93
60871;BME280;46714;50.118;14.462;2023-11-21T12:56:12;98505.81;;;8.72;90.54
60871;BME280;46714;50.118;14.462;2023-11-21T12:58:39;98502.72;;;8.68;90.50
60871;BME280;46714;50.118;14.462;2023-11-21T13:01:06;98502.09;;;8.66;91.59
60871;BME280;46714;50.118;14.462;2023-11-21T13:03:37;98501.47;;;8.64;93.51
60871;BME280;46714;50.118;14.462;2023-11-21T13:06:04;98507.97;;;8.56;93.45
60871;BME280;46714;50.118;14.462;2023-11-21T13:08:30;98516.38;;;8.48;93.51
60871;BME280;46714;50.118;14.462;2023-11-21T13:10:57;98517.03;;;8.44;93.77